Strona główna
METAR-TAF:

METAR-TAF

Lotnisko :

Port lotniczy Gibraltar

Gibraltar, Gibraltar

Szerokość geograficzna: 36-09N, Długość geograficzna: 005-21W, wysokość: 5 m

Aktualna obserwacja pogody

Raport powstał 39 minut temu, godzina 20:50 UTC
Wiatr 5 kt od północny wschód
Temperatura 15°C
Wilgotność 94%
Ciśnienie 1028 hPa
Widzialność: 5000 m

METAR: LXGB 092050Z AUTO 04005KT 5000 // NCD 15/14 Q1028

czas: 22:29 (21:29 UTC)

Prognoza

Raport powstał 4 godziny i 21 minut temu, godzina 17:08 UTC
Prognoza ważna od 09 godzina 18 UTC do 09 godzina 23 UTC
Wiatr 7 kt od wschód
Widzialność 10 km lub więcej
Mało chmury na wysokości 700 ft
Prawdopodobieństwo 40% :
Przejściowo
od 09 godzina 18 UTC do 09 godzina 23 UTC
Widzialność: 7000 m
Rozproszone chmury na wysokości 700 ft
zmętnienie

TAF: LXGB 091708Z 0918/0923 08007KT 9999 FEW007 PROB40 TEMPO 0918/0923 7000 HZ SCT007

Obserwacja i prognoza pogody dla ponad 4000 lotnisk (raport METAR i TAF).

Dostępne stacje oznaczono żółtymi i czerwonymi punktami na mapie.

Najedź kursorem aby zobaczyć nazwę stacji.

Kliknij aby zobaczyć obserwacje i prognozy pogody.

Aby zmienić mapę: kliknij na zielony przycisk z czarnym krzyżykiem, aby powiększyć; na zielony przycisk z myślnikiem, aby pomniejszyć; na zielone strzałki, aby przejść do map sąsiednich.


METAR-TAF: